createdAt,value
2023-02-06T00:00:07.839Z,12.70
2023-02-06T00:03:20.290Z,12.70
2023-02-06T00:06:22.565Z,12.70
2023-02-06T00:09:25.572Z,12.70
2023-02-06T00:12:28.178Z,12.60
2023-02-06T00:15:30.338Z,12.60
2023-02-06T00:18:33.481Z,12.60
2023-02-06T00:21:35.501Z,12.50
2023-02-06T00:24:37.487Z,12.50
2023-02-06T00:27:39.532Z,12.50
2023-02-06T00:30:41.508Z,12.40
2023-02-06T00:33:44.001Z,12.40
2023-02-06T00:36:46.051Z,12.40
2023-02-06T00:39:48.060Z,12.30
2023-02-06T00:42:50.059Z,12.30
2023-02-06T00:45:57.039Z,12.30
2023-02-06T00:48:59.120Z,12.20
2023-02-06T00:52:03.482Z,12.20
2023-02-06T00:55:07.472Z,12.10
2023-02-06T00:58:09.548Z,12.10
2023-02-06T01:01:11.579Z,12.00
2023-02-06T01:04:13.625Z,12.00
2023-02-06T01:07:15.751Z,11.90
2023-02-06T01:10:17.818Z,11.90
2023-02-06T01:13:20.488Z,11.90
2023-02-06T01:16:24.998Z,11.90
2023-02-06T01:19:27.050Z,11.80
2023-02-06T01:22:29.073Z,11.90
2023-02-06T01:25:31.158Z,11.80
2023-02-06T01:28:35.900Z,11.80
2023-02-06T01:31:38.006Z,11.80
2023-02-06T01:34:40.454Z,11.80
2023-02-06T01:37:44.368Z,11.80
2023-02-06T01:40:46.442Z,11.80
2023-02-06T01:44:12.812Z,11.70
2023-02-06T01:47:14.881Z,11.70
2023-02-06T01:50:17.261Z,11.70
2023-02-06T01:53:22.035Z,11.70
2023-02-06T01:56:25.555Z,11.70
2023-02-06T01:59:28.182Z,11.60
2023-02-06T02:02:33.911Z,11.60
2023-02-06T02:05:36.543Z,11.60
2023-02-06T02:08:45.387Z,11.60
2023-02-06T02:11:47.425Z,11.60
2023-02-06T02:14:52.097Z,11.60
2023-02-06T02:18:05.283Z,11.50
2023-02-06T02:21:21.841Z,11.60
2023-02-06T02:24:48.096Z,11.50
2023-02-06T02:28:24.268Z,11.50
2023-02-06T02:31:45.252Z,11.50
2023-02-06T02:34:56.231Z,11.40
2023-02-06T02:38:19.638Z,11.40
2023-02-06T02:41:42.602Z,11.40
2023-02-06T02:45:13.814Z,11.30
2023-02-06T02:48:28.391Z,11.30
2023-02-06T02:51:31.185Z,11.20
2023-02-06T02:54:33.189Z,11.20
2023-02-06T02:57:36.789Z,11.20
2023-02-06T03:00:55.558Z,11.10
2023-02-06T03:04:00.454Z,11.10
2023-02-06T03:07:10.274Z,11.10
2023-02-06T03:10:34.017Z,11.00
2023-02-06T03:13:44.200Z,11.00
2023-02-06T03:17:04.223Z,11.00
2023-02-06T03:20:09.075Z,11.00
2023-02-06T03:23:17.173Z,11.00
2023-02-06T03:26:22.906Z,10.90
2023-02-06T03:29:28.280Z,10.90
2023-02-06T03:32:34.537Z,10.90
2023-02-06T03:35:38.437Z,10.80
2023-02-06T03:38:40.726Z,10.80
2023-02-06T03:41:45.404Z,10.70
2023-02-06T03:44:59.662Z,10.70
2023-02-06T03:48:06.414Z,10.60
2023-02-06T03:51:31.094Z,10.60
2023-02-06T03:54:36.794Z,10.60
2023-02-06T03:57:39.751Z,10.50
2023-02-06T04:00:44.689Z,10.50
2023-02-06T04:03:46.714Z,10.50
2023-02-06T04:06:48.684Z,10.50
2023-02-06T04:09:51.207Z,10.50
2023-02-06T04:12:53.522Z,10.50
2023-02-06T04:15:56.462Z,10.50
2023-02-06T04:18:58.470Z,10.50
2023-02-06T04:22:00.891Z,10.50
2023-02-06T04:25:03.039Z,10.50
2023-02-06T04:28:05.516Z,10.50
2023-02-06T04:31:08.600Z,10.50
2023-02-06T04:34:10.756Z,10.40
2023-02-06T04:37:12.779Z,10.40
2023-02-06T04:40:14.805Z,10.40
2023-02-06T04:43:16.828Z,10.40
2023-02-06T04:46:19.898Z,10.40
2023-02-06T04:49:22.018Z,10.30
2023-02-06T04:52:24.358Z,10.30
2023-02-06T04:55:26.417Z,10.30
2023-02-06T04:58:28.470Z,10.30
2023-02-06T05:01:30.963Z,10.30
2023-02-06T05:04:34.184Z,10.30
2023-02-06T05:07:38.821Z,10.30
2023-02-06T05:10:41.797Z,10.30
2023-02-06T05:13:43.780Z,10.20
2023-02-06T05:16:46.477Z,10.20
2023-02-06T05:19:48.638Z,10.20
2023-02-06T05:22:50.717Z,10.20
2023-02-06T05:25:52.856Z,10.20
2023-02-06T05:28:54.954Z,10.20
2023-02-06T05:31:57.053Z,10.30
2023-02-06T05:34:59.325Z,10.30
2023-02-06T05:38:01.295Z,10.30
2023-02-06T05:41:03.644Z,10.30
2023-02-06T05:44:05.734Z,10.30
2023-02-06T05:47:07.730Z,10.30
2023-02-06T05:50:09.909Z,10.20
2023-02-06T05:53:12.018Z,10.20
2023-02-06T05:56:14.029Z,10.10
2023-02-06T05:59:16.134Z,10.10
2023-02-06T06:02:18.229Z,10.10
2023-02-06T06:05:21.432Z,10.10
2023-02-06T06:08:23.562Z,10.00
2023-02-06T06:11:25.613Z,10.00
2023-02-06T06:14:27.790Z,10.00
2023-02-06T06:17:29.816Z,9.90
2023-02-06T06:20:31.846Z,9.90
2023-02-06T06:23:33.943Z,9.90
2023-02-06T06:26:36.092Z,9.90
2023-02-06T06:29:38.362Z,9.90
2023-02-06T06:32:40.515Z,9.90
2023-02-06T06:35:42.940Z,9.90
2023-02-06T06:38:45.061Z,9.90
2023-02-06T06:41:47.111Z,9.90
2023-02-06T06:44:49.383Z,9.90
2023-02-06T06:47:51.529Z,9.90
2023-02-06T06:50:53.542Z,9.90
2023-02-06T06:53:56.970Z,9.90
2023-02-06T06:56:58.984Z,9.90
2023-02-06T07:00:02.003Z,9.90
2023-02-06T07:03:04.467Z,9.80
2023-02-06T07:06:06.745Z,9.80
2023-02-06T07:09:08.930Z,9.80
2023-02-06T07:12:10.955Z,9.80
2023-02-06T07:15:12.955Z,9.80
2023-02-06T07:18:15.998Z,9.80
2023-02-06T07:21:19.999Z,9.80
2023-02-06T07:24:22.025Z,9.70
2023-02-06T07:27:24.150Z,9.70
2023-02-06T07:30:27.096Z,9.60
2023-02-06T07:33:29.179Z,9.60
2023-02-06T07:36:31.484Z,9.60
2023-02-06T07:39:33.502Z,9.60
2023-02-06T07:42:37.526Z,9.60
2023-02-06T07:45:39.809Z,9.60
2023-02-06T07:48:42.636Z,9.60
2023-02-06T07:51:46.180Z,9.70
2023-02-06T07:54:49.159Z,9.70
2023-02-06T07:57:51.169Z,10.00
2023-02-06T08:00:54.875Z,10.90
2023-02-06T08:03:57.316Z,12.20
2023-02-06T08:06:59.402Z,13.60
2023-02-06T08:10:01.372Z,14.80
2023-02-06T08:13:03.492Z,16.00
2023-02-06T08:16:12.410Z,16.90
2023-02-06T08:19:14.618Z,17.90
2023-02-06T08:22:16.579Z,18.70
2023-02-06T08:25:18.739Z,19.30
2023-02-06T08:28:20.994Z,20.30
2023-02-06T08:31:26.075Z,20.90
2023-02-06T08:34:28.603Z,21.40
2023-02-06T08:37:31.968Z,21.20
2023-02-06T08:40:34.073Z,21.40
2023-02-06T08:43:36.115Z,21.80
2023-02-06T08:46:39.338Z,22.50
2023-02-06T08:49:41.570Z,22.50
2023-02-06T08:52:43.777Z,23.30
2023-02-06T08:55:45.920Z,23.80
2023-02-06T08:58:47.928Z,22.70
2023-02-06T09:01:50.035Z,22.90
2023-02-06T09:04:52.296Z,23.10
2023-02-06T09:07:54.313Z,23.70
2023-02-06T09:10:56.794Z,25.00
2023-02-06T09:14:00.662Z,25.30
2023-02-06T09:17:03.345Z,25.80
2023-02-06T09:20:05.997Z,26.50
2023-02-06T09:23:08.106Z,27.10
2023-02-06T09:26:11.856Z,28.20
2023-02-06T09:29:14.578Z,29.20
2023-02-06T09:32:16.878Z,29.20
2023-02-06T09:35:18.965Z,30.10
2023-02-06T09:38:22.367Z,30.50
2023-02-06T09:41:27.768Z,29.70
2023-02-06T09:44:30.277Z,30.10
2023-02-06T09:47:39.430Z,30.80
2023-02-06T09:51:03.945Z,30.90
2023-02-06T09:54:11.983Z,30.30
2023-02-06T09:57:42.104Z,30.60
2023-02-06T10:01:02.560Z,30.70
2023-02-06T10:04:13.021Z,30.70
2023-02-06T10:07:21.523Z,30.50
2023-02-06T10:10:38.994Z,30.60
2023-02-06T10:14:00.268Z,30.40
2023-02-06T10:17:26.026Z,29.30
2023-02-06T10:20:46.881Z,28.60
2023-02-06T10:24:01.003Z,28.10
2023-02-06T10:27:23.556Z,27.40
2023-02-06T10:30:52.648Z,27.10
2023-02-06T10:34:24.847Z,27.80
2023-02-06T10:37:58.141Z,28.30
2023-02-06T10:41:19.950Z,29.00
2023-02-06T10:44:31.867Z,29.20
2023-02-06T10:47:49.111Z,29.00
2023-02-06T10:51:03.944Z,29.30
2023-02-06T10:54:16.088Z,29.70
2023-02-06T10:57:21.973Z,30.30
2023-02-06T11:00:26.352Z,30.10
2023-02-06T11:03:32.038Z,29.40
2023-02-06T11:06:36.847Z,30.20
2023-02-06T11:09:38.835Z,30.40
2023-02-06T11:13:07.505Z,30.30
2023-02-06T11:16:16.528Z,30.60
2023-02-06T11:19:42.155Z,30.40
2023-02-06T11:22:52.337Z,30.40
2023-02-06T11:26:06.191Z,30.70
2023-02-06T11:29:27.748Z,31.30
2023-02-06T11:32:41.142Z,30.30
2023-02-06T11:35:56.071Z,30.60
2023-02-06T11:39:05.209Z,30.80
2023-02-06T11:42:20.066Z,30.10
2023-02-06T11:45:33.679Z,30.40
2023-02-06T11:48:45.188Z,30.30
2023-02-06T11:51:54.559Z,30.20
2023-02-06T11:55:01.842Z,29.80
2023-02-06T11:58:12.916Z,29.70
2023-02-06T12:01:21.011Z,29.80
2023-02-06T12:04:32.483Z,29.10
2023-02-06T12:07:55.815Z,27.80
2023-02-06T12:11:04.203Z,26.00
2023-02-06T12:14:31.366Z,24.40
2023-02-06T12:17:37.824Z,23.10
2023-02-06T12:20:52.750Z,22.20
2023-02-06T12:24:01.951Z,21.40
2023-02-06T12:27:18.538Z,20.80
2023-02-06T12:30:29.942Z,20.30
2023-02-06T12:33:48.444Z,19.80
2023-02-06T12:37:10.480Z,19.40
2023-02-06T12:40:31.194Z,18.90
2023-02-06T12:43:36.115Z,18.60
2023-02-06T12:46:39.395Z,18.60
2023-02-06T12:49:56.890Z,18.40
2023-02-06T12:53:10.604Z,18.20
2023-02-06T12:56:21.784Z,18.20
2023-02-06T12:59:56.996Z,18.20
2023-02-06T13:03:14.603Z,18.00
2023-02-06T13:06:25.637Z,18.00
2023-02-06T13:09:32.734Z,18.10
2023-02-06T13:12:40.645Z,18.20
2023-02-06T13:15:42.763Z,18.20
2023-02-06T13:18:45.671Z,18.30
2023-02-06T13:22:15.789Z,18.20
2023-02-06T13:25:29.707Z,18.10
2023-02-06T13:28:37.387Z,18.10
2023-02-06T13:31:39.535Z,18.00
2023-02-06T13:34:43.243Z,18.00
2023-02-06T13:37:48.248Z,17.90
2023-02-06T13:41:16.776Z,17.90
2023-02-06T13:44:25.385Z,17.90
2023-02-06T13:47:52.129Z,17.80
2023-02-06T13:51:07.149Z,17.80
2023-02-06T13:54:39.894Z,17.90
2023-02-06T13:58:09.970Z,17.80
2023-02-06T14:01:15.844Z,17.80
2023-02-06T14:04:38.168Z,17.80
2023-02-06T14:08:01.152Z,17.80
2023-02-06T14:11:34.539Z,17.80
2023-02-06T14:14:52.228Z,17.80
2023-02-06T14:18:19.552Z,17.80
2023-02-06T14:21:40.635Z,17.80
2023-02-06T14:24:42.631Z,17.90
2023-02-06T14:28:12.248Z,17.90
2023-02-06T14:31:33.414Z,17.90
2023-02-06T14:34:50.559Z,18.00
2023-02-06T14:38:18.401Z,18.00
2023-02-06T14:41:20.841Z,18.10
2023-02-06T14:44:30.686Z,18.00
2023-02-06T14:47:41.130Z,18.00
2023-02-06T14:50:49.402Z,18.00
2023-02-06T14:54:16.686Z,18.00
2023-02-06T14:57:26.335Z,18.00
2023-02-06T15:00:29.205Z,18.00
2023-02-06T15:03:31.457Z,18.10
2023-02-06T15:06:37.827Z,18.10
2023-02-06T15:09:44.269Z,18.00
2023-02-06T15:12:54.059Z,18.00
2023-02-06T15:15:57.259Z,17.90
2023-02-06T15:19:20.225Z,17.90
2023-02-06T15:22:29.159Z,17.90
2023-02-06T15:26:03.858Z,17.90
2023-02-06T15:29:19.152Z,17.90
2023-02-06T15:32:38.548Z,17.90
2023-02-06T15:35:48.546Z,17.90
2023-02-06T15:38:51.441Z,17.80
2023-02-06T15:41:54.196Z,17.80
2023-02-06T15:44:57.648Z,17.80
2023-02-06T15:48:18.176Z,17.80
2023-02-06T15:51:24.847Z,17.80
2023-02-06T15:54:27.918Z,17.80
2023-02-06T15:57:39.963Z,17.80
2023-02-06T16:00:42.210Z,17.70
2023-02-06T16:03:45.607Z,17.70
2023-02-06T16:07:17.605Z,17.70
2023-02-06T16:10:27.943Z,17.60
2023-02-06T16:13:32.711Z,17.60
2023-02-06T16:16:35.050Z,17.50
2023-02-06T16:19:52.227Z,17.50
2023-02-06T16:23:18.361Z,17.50
2023-02-06T16:26:25.585Z,17.40
2023-02-06T16:29:31.902Z,17.40
2023-02-06T16:32:35.571Z,17.30
2023-02-06T16:35:38.163Z,17.30
2023-02-06T16:38:42.003Z,17.20
2023-02-06T16:41:51.513Z,17.10
2023-02-06T16:45:10.408Z,17.00
2023-02-06T16:48:14.104Z,16.90
2023-02-06T16:51:18.660Z,16.90
2023-02-06T16:54:27.501Z,16.80
2023-02-06T16:57:39.482Z,16.70
2023-02-06T17:00:43.402Z,16.70
2023-02-06T17:03:45.442Z,16.60
2023-02-06T17:06:48.122Z,16.50
2023-02-06T17:09:51.887Z,16.40
2023-02-06T17:12:55.056Z,16.40
2023-02-06T17:15:57.369Z,16.30
2023-02-06T17:18:59.724Z,16.20
2023-02-06T17:22:01.769Z,16.20
2023-02-06T17:25:13.356Z,16.20
2023-02-06T17:28:22.507Z,16.10
2023-02-06T17:31:24.650Z,16.10
2023-02-06T17:34:27.577Z,16.00
2023-02-06T17:37:29.672Z,15.90
2023-02-06T17:40:34.108Z,15.80
2023-02-06T17:43:37.546Z,15.70
2023-02-06T17:46:39.987Z,15.60
2023-02-06T17:49:42.411Z,15.60
2023-02-06T17:52:44.535Z,15.50
2023-02-06T17:55:47.385Z,15.40
2023-02-06T17:58:49.834Z,15.30
2023-02-06T18:01:52.128Z,15.30
2023-02-06T18:04:54.471Z,15.20
2023-02-06T18:07:56.580Z,15.10
2023-02-06T18:10:58.918Z,15.00
2023-02-06T18:14:02.496Z,14.90
2023-02-06T18:17:06.824Z,14.80
2023-02-06T18:20:10.590Z,14.70
2023-02-06T18:23:12.795Z,14.70
2023-02-06T18:26:15.367Z,14.50
2023-02-06T18:29:17.594Z,14.50
2023-02-06T18:32:20.019Z,14.40
2023-02-06T18:35:22.137Z,14.30
2023-02-06T18:38:24.658Z,14.20
2023-02-06T18:41:45.190Z,14.20
2023-02-06T18:44:47.167Z,14.10
2023-02-06T18:47:51.734Z,14.00
2023-02-06T18:50:54.471Z,14.00
2023-02-06T18:54:00.578Z,13.90
2023-02-06T18:57:03.193Z,13.90
2023-02-06T19:00:07.583Z,13.80
2023-02-06T19:03:09.547Z,13.80
2023-02-06T19:06:17.488Z,13.70
2023-02-06T19:09:22.927Z,13.60
2023-02-06T19:12:28.322Z,13.60
2023-02-06T19:15:34.266Z,13.50
2023-02-06T19:18:39.631Z,13.50
2023-02-06T19:21:44.135Z,13.40
2023-02-06T19:24:46.259Z,13.40
2023-02-06T19:27:48.515Z,13.30
2023-02-06T19:30:51.800Z,13.20
2023-02-06T19:33:59.555Z,13.20
2023-02-06T19:37:02.338Z,13.10
2023-02-06T19:40:04.624Z,13.10
2023-02-06T19:43:06.682Z,13.00
2023-02-06T19:46:12.781Z,13.10
2023-02-06T19:49:15.801Z,13.00
2023-02-06T19:52:18.095Z,12.90
2023-02-06T19:55:20.221Z,12.90
2023-02-06T19:58:22.783Z,12.90
2023-02-06T20:01:26.028Z,12.80
2023-02-06T20:04:31.594Z,12.80
2023-02-06T20:07:35.453Z,12.70
2023-02-06T20:10:38.863Z,12.70
2023-02-06T20:13:41.745Z,12.70
2023-02-06T20:16:44.997Z,12.60
2023-02-06T20:19:47.304Z,12.60
2023-02-06T20:22:50.354Z,12.60
2023-02-06T20:25:53.064Z,12.60
2023-02-06T20:28:55.758Z,12.60
2023-02-06T20:31:58.722Z,12.50
2023-02-06T20:35:00.870Z,12.60
2023-02-06T20:38:03.020Z,12.50
2023-02-06T20:41:06.682Z,12.50
2023-02-06T20:44:10.919Z,12.40
2023-02-06T20:47:13.024Z,12.40
2023-02-06T20:50:16.829Z,12.40
2023-02-06T20:53:18.859Z,12.40
2023-02-06T20:56:21.858Z,12.30
2023-02-06T20:59:23.839Z,12.30
2023-02-06T21:02:25.902Z,12.30
2023-02-06T21:05:28.261Z,12.20
2023-02-06T21:08:30.415Z,12.20
2023-02-06T21:11:38.556Z,12.20
2023-02-06T21:14:41.821Z,12.20
2023-02-06T21:17:43.986Z,12.10
2023-02-06T21:20:46.609Z,12.10
2023-02-06T21:23:49.098Z,12.10
2023-02-06T21:26:52.164Z,12.10
2023-02-06T21:29:55.471Z,12.10
2023-02-06T21:32:57.503Z,12.10
2023-02-06T21:36:02.359Z,12.10
2023-02-06T21:39:05.057Z,12.00
2023-02-06T21:42:08.643Z,12.00
2023-02-06T21:45:10.658Z,12.00
2023-02-06T21:48:12.768Z,12.00
2023-02-06T21:51:17.185Z,12.00
2023-02-06T21:54:19.777Z,12.00
2023-02-06T21:57:22.879Z,12.00
2023-02-06T22:00:25.043Z,12.00
2023-02-06T22:03:27.120Z,12.00
2023-02-06T22:06:29.789Z,12.00
2023-02-06T22:09:31.854Z,11.90
2023-02-06T22:12:34.401Z,11.90
2023-02-06T22:15:36.924Z,11.90
2023-02-06T22:18:39.960Z,11.90
2023-02-06T22:21:42.717Z,11.90
2023-02-06T22:24:44.987Z,11.90
2023-02-06T22:27:47.343Z,11.90
2023-02-06T22:30:49.745Z,11.90
2023-02-06T22:33:53.190Z,11.90
2023-02-06T22:36:55.231Z,11.90
2023-02-06T22:39:57.382Z,11.90
2023-02-06T22:42:59.373Z,11.90
2023-02-06T22:46:01.767Z,11.90
2023-02-06T22:49:06.422Z,11.90
2023-02-06T22:52:31.357Z,11.80
2023-02-06T22:55:59.306Z,11.90
2023-02-06T22:59:13.395Z,11.90
2023-02-06T23:02:17.317Z,11.90
2023-02-06T23:05:23.586Z,11.90
2023-02-06T23:08:25.583Z,11.90
2023-02-06T23:11:28.749Z,11.90
2023-02-06T23:14:32.859Z,11.90
2023-02-06T23:17:34.961Z,11.80
2023-02-06T23:20:38.257Z,11.90
2023-02-06T23:23:41.440Z,11.80
2023-02-06T23:26:46.148Z,11.80
2023-02-06T23:29:48.254Z,11.80
2023-02-06T23:32:51.113Z,11.80
2023-02-06T23:35:53.256Z,11.80
2023-02-06T23:38:56.345Z,11.80
2023-02-06T23:41:58.371Z,11.80
2023-02-06T23:45:00.710Z,11.80
2023-02-06T23:48:02.843Z,11.80
2023-02-06T23:51:04.811Z,11.80
2023-02-06T23:54:08.681Z,11.90
2023-02-06T23:57:10.833Z,11.90
